createdAt,value
2019-01-03T00:02:00.108Z,103364.88
2019-01-03T00:04:52.413Z,103352.61
2019-01-03T00:07:40.483Z,103355.61
2019-01-03T00:10:35.338Z,103346.87
2019-01-03T00:13:29.533Z,103353.82
2019-01-03T00:16:21.250Z,103367.27
2019-01-03T00:19:28.463Z,103362.39
2019-01-03T00:22:20.480Z,103343.23
2019-01-03T00:25:08.011Z,103344.52
2019-01-03T00:27:55.579Z,103349.70
2019-01-03T00:30:43.689Z,103347.48
2019-01-03T00:33:24.433Z,103347.38
2019-01-03T00:36:31.655Z,103350.40
2019-01-03T00:39:32.366Z,103350.83
2019-01-03T00:42:30.091Z,103348.66
2019-01-03T00:45:21.554Z,103349.09
2019-01-03T00:48:22.747Z,103342.59
2019-01-03T00:51:01.847Z,103332.56
2019-01-03T00:53:55.193Z,103340.38
2019-01-03T00:56:42.703Z,103338.66
2019-01-03T00:59:27.791Z,103341.25
2019-01-03T01:02:16.990Z,103363.86
2019-01-03T01:05:11.954Z,103371.61
2019-01-03T01:08:09.412Z,103364.16
2019-01-03T01:10:57.149Z,103360.25
2019-01-03T01:13:44.789Z,103362.81
2019-01-03T01:16:32.563Z,103374.12
2019-01-03T01:19:18.195Z,103378.89
2019-01-03T01:22:13.439Z,103386.23
2019-01-03T01:25:17.837Z,103391.45
2019-01-03T01:28:00.745Z,103383.60
2019-01-03T01:30:50.327Z,103391.91
2019-01-03T01:33:48.617Z,103394.94
2019-01-03T01:36:41.796Z,103387.97
2019-01-03T01:39:27.374Z,103397.56
2019-01-03T01:42:10.975Z,103395.89
2019-01-03T01:44:58.743Z,103393.67
2019-01-03T01:47:49.855Z,103394.97
2019-01-03T01:50:37.716Z,103386.25
2019-01-03T01:53:29.703Z,103385.79
2019-01-03T01:56:24.405Z,103393.62
2019-01-03T01:59:12.410Z,103402.81
2019-01-03T02:02:00.249Z,103415.08
2019-01-03T02:04:41.732Z,103437.23
2019-01-03T02:07:31.869Z,103443.31
2019-01-03T02:10:16.382Z,103429.33
2019-01-03T02:13:23.617Z,103429.72
2019-01-03T02:16:12.463Z,103433.14
2019-01-03T02:19:13.371Z,103439.66
2019-01-03T02:22:08.517Z,103432.70
2019-01-03T02:25:10.859Z,103428.84
2019-01-03T02:28:06.413Z,103426.68
2019-01-03T02:31:07.274Z,103417.95
2019-01-03T02:34:02.314Z,103420.60
2019-01-03T02:37:06.472Z,103420.60
2019-01-03T02:39:50.307Z,103413.18
2019-01-03T02:42:37.749Z,103408.38
2019-01-03T02:45:25.872Z,103407.09
2019-01-03T02:48:24.041Z,103400.63
2019-01-03T02:51:11.581Z,103403.75
2019-01-03T02:54:01.115Z,103404.22
2019-01-03T02:57:04.103Z,103400.69
2019-01-03T02:59:55.797Z,103394.19
2019-01-03T03:02:42.322Z,103393.73
2019-01-03T03:05:29.251Z,103381.44
2019-01-03T03:08:18.009Z,103373.56
2019-01-03T03:11:12.729Z,103366.57
2019-01-03T03:14:07.695Z,103365.30
2019-01-03T03:17:03.002Z,103361.84
2019-01-03T03:19:48.528Z,103363.52
2019-01-03T03:22:37.458Z,103352.58
2019-01-03T03:25:19.864Z,103356.05
2019-01-03T03:28:21.353Z,103347.81
2019-01-03T03:31:22.427Z,103349.14
2019-01-03T03:34:23.276Z,103347.83
2019-01-03T03:37:10.637Z,103343.92
2019-01-03T03:40:18.684Z,103337.84
2019-01-03T03:43:10.966Z,103333.05
2019-01-03T03:45:54.401Z,103337.37
2019-01-03T03:48:43.601Z,103336.93
2019-01-03T03:51:25.674Z,103343.92
2019-01-03T03:54:13.514Z,103353.11
2019-01-03T03:57:08.732Z,103349.64
2019-01-03T04:00:05.240Z,103357.02
2019-01-03T04:02:43.073Z,103360.88
2019-01-03T04:05:47.360Z,103352.98
2019-01-03T04:08:38.733Z,103350.81
2019-01-03T04:11:27.650Z,103338.19
2019-01-03T04:14:16.504Z,103333.39
2019-01-03T04:17:03.007Z,103342.03
2019-01-03T04:19:47.291Z,103338.92
2019-01-03T04:22:35.255Z,103344.98
2019-01-03T04:25:35.660Z,103350.59
2019-01-03T04:28:23.266Z,103351.46
2019-01-03T04:31:06.773Z,103337.94
2019-01-03T04:33:55.629Z,103343.21
2019-01-03T04:36:59.876Z,103343.25
2019-01-03T04:39:47.404Z,103339.75
2019-01-03T04:42:48.282Z,103337.56
2019-01-03T04:45:35.836Z,103332.29
2019-01-03T04:48:30.846Z,103333.17
2019-01-03T04:51:28.923Z,103331.86
2019-01-03T04:54:16.546Z,103334.06
2019-01-03T04:57:04.278Z,103335.36
2019-01-03T05:00:02.287Z,103333.63
2019-01-03T05:02:54.227Z,103332.33
2019-01-03T05:05:55.314Z,103330.17
2019-01-03T05:08:44.470Z,103327.16
2019-01-03T05:11:29.103Z,103337.13
2019-01-03T05:14:33.697Z,103341.87
2019-01-03T05:17:17.996Z,103337.88
2019-01-03T05:20:12.781Z,103346.10
2019-01-03T05:23:08.003Z,103338.67
2019-01-03T05:25:55.551Z,103335.17
2019-01-03T05:28:59.683Z,103338.67
2019-01-03T05:32:06.904Z,103335.64
2019-01-03T05:34:54.620Z,103343.02
2019-01-03T05:37:44.914Z,103346.45
2019-01-03T05:40:36.810Z,103342.88
2019-01-03T05:43:37.560Z,103334.12
2019-01-03T05:46:30.228Z,103334.08
2019-01-03T05:49:17.842Z,103324.89
2019-01-03T05:52:05.567Z,103325.74
2019-01-03T05:54:53.673Z,103319.64
2019-01-03T05:57:39.403Z,103320.53
2019-01-03T06:00:27.332Z,103325.78
2019-01-03T06:03:15.367Z,103319.28
2019-01-03T06:06:13.712Z,103322.38
2019-01-03T06:09:14.948Z,103326.38
2019-01-03T06:12:04.609Z,103333.30
2019-01-03T06:14:49.757Z,103342.88
2019-01-03T06:17:51.252Z,103339.39
2019-01-03T06:20:44.162Z,103337.29
2019-01-03T06:23:31.865Z,103342.10
2019-01-03T06:26:13.426Z,103346.48
2019-01-03T06:29:02.255Z,103345.64
2019-01-03T06:31:56.636Z,103346.08
2019-01-03T06:34:44.238Z,103349.97
2019-01-03T06:37:45.131Z,103346.02
2019-01-03T06:40:33.012Z,103353.41
2019-01-03T06:43:21.218Z,103344.64
2019-01-03T06:46:10.398Z,103339.83
2019-01-03T06:49:15.994Z,103338.52
2019-01-03T06:51:59.438Z,103350.28
2019-01-03T06:54:51.115Z,103357.28
2019-01-03T06:57:39.562Z,103355.95
2019-01-03T07:00:27.362Z,103354.59
2019-01-03T07:03:16.135Z,103355.44
2019-01-03T07:06:03.202Z,103358.05
2019-01-03T07:08:50.896Z,103362.84
2019-01-03T07:11:39.821Z,103363.73
2019-01-03T07:14:28.734Z,103368.94
2019-01-03T07:17:31.357Z,103364.59
2019-01-03T07:20:19.970Z,103360.27
2019-01-03T07:23:07.572Z,103352.45
2019-01-03T07:25:55.483Z,103355.59
2019-01-03T07:28:39.916Z,103363.06
2019-01-03T07:31:28.640Z,103360.91
2019-01-03T07:34:30.528Z,103368.34
2019-01-03T07:37:19.534Z,103363.99
2019-01-03T07:40:06.806Z,103363.59
2019-01-03T07:42:47.902Z,103363.61
2019-01-03T07:45:48.895Z,103369.77
2019-01-03T07:48:50.203Z,103369.33
2019-01-03T07:51:38.088Z,103371.89
2019-01-03T07:54:25.914Z,103371.87
2019-01-03T07:57:14.492Z,103370.11
2019-01-03T08:00:02.297Z,103385.30
2019-01-03T08:02:50.696Z,103387.00
2019-01-03T08:05:47.363Z,103385.63
2019-01-03T08:08:51.338Z,103391.23
2019-01-03T08:11:39.364Z,103392.06
2019-01-03T08:14:26.895Z,103385.50
2019-01-03T08:17:27.328Z,103388.55
2019-01-03T08:20:16.246Z,103384.60
2019-01-03T08:23:11.533Z,103390.20
2019-01-03T08:26:00.707Z,103390.61
2019-01-03T08:28:48.685Z,103396.69
2019-01-03T08:31:36.888Z,103394.47
2019-01-03T08:34:30.126Z,103391.39
2019-01-03T08:37:17.991Z,103388.31
2019-01-03T08:40:13.173Z,103389.16
2019-01-03T08:43:13.189Z,103389.97
2019-01-03T08:45:59.382Z,103392.55
2019-01-03T08:48:48.659Z,103399.51
2019-01-03T08:51:36.419Z,103395.09
2019-01-03T08:54:24.214Z,103396.41
2019-01-03T08:57:18.869Z,103398.12
2019-01-03T09:00:05.987Z,103405.08
2019-01-03T09:03:04.605Z,103415.11
2019-01-03T09:06:05.612Z,103413.34
2019-01-03T09:09:12.719Z,103415.86
2019-01-03T09:11:52.078Z,103407.54
2019-01-03T09:14:39.245Z,103413.59
2019-01-03T09:17:22.002Z,103417.04
2019-01-03T09:20:10.023Z,103418.70
2019-01-03T09:22:57.425Z,103409.92
2019-01-03T09:25:52.472Z,103414.25
2019-01-03T09:28:40.019Z,103410.75
2019-01-03T09:31:31.972Z,103413.82
2019-01-03T09:34:21.597Z,103418.99
2019-01-03T09:37:08.516Z,103411.97
2019-01-03T09:39:56.069Z,103427.19
2019-01-03T09:42:43.937Z,103422.77
2019-01-03T09:45:13.881Z,103423.59
2019-01-03T09:47:44.096Z,103430.96
2019-01-03T09:50:13.946Z,103425.25
2019-01-03T09:52:43.803Z,103430.86
2019-01-03T09:55:13.743Z,103426.06
2019-01-03T09:57:43.916Z,103431.23
2019-01-03T10:00:14.141Z,103425.96
2019-01-03T10:02:43.995Z,103434.20
2019-01-03T10:05:13.924Z,103431.13
2019-01-03T10:07:43.856Z,103426.73
2019-01-03T10:10:14.047Z,103424.47
2019-01-03T10:12:43.900Z,103429.72
2019-01-03T10:15:13.745Z,103421.83
2019-01-03T10:17:44.008Z,103428.38
2019-01-03T10:20:13.945Z,103428.91
2019-01-03T10:22:43.709Z,103421.54
2019-01-03T10:25:13.568Z,103413.70
2019-01-03T10:27:43.775Z,103416.30
2019-01-03T10:30:13.757Z,103412.81
2019-01-03T10:32:43.691Z,103416.34
2019-01-03T10:35:13.541Z,103412.09
2019-01-03T10:37:43.667Z,103410.42
2019-01-03T10:40:13.616Z,103416.11
2019-01-03T10:42:43.603Z,103409.20
2019-01-03T10:45:13.476Z,103401.88
2019-01-03T10:47:43.637Z,103401.50
2019-01-03T10:50:13.572Z,103388.84
2019-01-03T10:52:43.427Z,103385.25
2019-01-03T10:55:13.337Z,103378.14
2019-01-03T10:57:43.258Z,103375.28
2019-01-03T11:00:13.197Z,103379.86
2019-01-03T11:02:43.305Z,103376.58
2019-01-03T11:05:13.164Z,103382.44
2019-01-03T11:07:42.929Z,103379.61
2019-01-03T11:10:12.875Z,103377.65
2019-01-03T11:12:42.796Z,103372.80
2019-01-03T11:15:12.735Z,103382.34
2019-01-03T11:17:42.952Z,103370.14
2019-01-03T11:20:12.894Z,103377.20
2019-01-03T11:22:43.070Z,103377.30
2019-01-03T11:25:12.928Z,103373.42
2019-01-03T11:27:42.955Z,103369.55
2019-01-03T11:30:13.152Z,103367.39
2019-01-03T11:32:43.100Z,103367.81
2019-01-03T11:35:12.943Z,103364.36
2019-01-03T11:37:43.303Z,103358.27
2019-01-03T11:40:13.222Z,103362.23
2019-01-03T11:42:43.064Z,103353.95
2019-01-03T11:45:13.002Z,103353.03
2019-01-03T11:47:43.952Z,103350.83
2019-01-03T11:50:14.025Z,103347.76
2019-01-03T11:52:43.958Z,103342.92
2019-01-03T11:55:13.898Z,103340.72
2019-01-03T11:57:43.830Z,103338.46
2019-01-03T12:00:13.748Z,103341.05
2019-01-03T12:02:44.336Z,103346.36
2019-01-03T12:05:14.188Z,103347.31
2019-01-03T12:07:44.041Z,103348.77
2019-01-03T12:10:13.836Z,103338.34
2019-01-03T12:12:43.695Z,103339.08
2019-01-03T12:15:14.126Z,103342.69
2019-01-03T12:17:45.716Z,103337.23
2019-01-03T12:20:17.262Z,103336.20
2019-01-03T12:22:47.428Z,103327.41
2019-01-03T12:25:17.449Z,103330.90
2019-01-03T12:27:47.301Z,103343.12
2019-01-03T12:30:17.140Z,103329.14
2019-01-03T12:32:47.199Z,103325.66
2019-01-03T12:35:17.338Z,103338.80
2019-01-03T12:37:47.408Z,103343.66
2019-01-03T12:40:17.328Z,103337.26
2019-01-03T12:42:47.178Z,103340.09
2019-01-03T12:45:17.018Z,103347.58
2019-01-03T12:47:47.267Z,103344.52
2019-01-03T12:50:17.323Z,103340.06
2019-01-03T12:52:47.101Z,103342.56
2019-01-03T12:55:16.949Z,103338.09
2019-01-03T12:57:46.881Z,103341.55
2019-01-03T13:00:17.420Z,103337.10
2019-01-03T13:02:47.360Z,103331.89
2019-01-03T13:05:17.278Z,103324.59
2019-01-03T13:07:47.200Z,103322.89
2019-01-03T13:10:17.056Z,103321.58
2019-01-03T13:12:47.008Z,103308.08
2019-01-03T13:15:16.872Z,103316.81
2019-01-03T13:17:47.005Z,103325.52
2019-01-03T13:20:16.849Z,103328.55
2019-01-03T13:22:47.235Z,103333.80
2019-01-03T13:25:17.466Z,103334.73
2019-01-03T13:27:47.233Z,103339.20
2019-01-03T13:30:17.005Z,103337.12
2019-01-03T13:32:46.934Z,103344.54
2019-01-03T13:35:16.858Z,103337.56
2019-01-03T13:37:48.216Z,103342.36
2019-01-03T13:40:18.422Z,103339.71
2019-01-03T13:42:48.362Z,103340.06
2019-01-03T13:45:18.215Z,103347.04
2019-01-03T13:47:48.428Z,103337.86
2019-01-03T13:50:18.368Z,103336.13
2019-01-03T13:52:48.153Z,103332.77
2019-01-03T13:55:18.374Z,103334.97
2019-01-03T13:57:48.141Z,103330.62
2019-01-03T14:00:18.398Z,103332.41
2019-01-03T14:02:48.327Z,103325.02
2019-01-03T14:05:18.136Z,103333.36
2019-01-03T14:07:47.953Z,103333.87
2019-01-03T14:10:18.177Z,103330.41
2019-01-03T14:12:49.004Z,103330.80
2019-01-03T14:15:19.530Z,103335.15
2019-01-03T14:17:49.400Z,103338.13
2019-01-03T14:20:19.328Z,103337.66
2019-01-03T14:22:49.467Z,103342.42
2019-01-03T14:25:19.397Z,103342.34
2019-01-03T14:27:49.526Z,103336.55
2019-01-03T14:30:19.382Z,103338.66
2019-01-03T14:32:49.405Z,103345.22
2019-01-03T14:35:19.324Z,103352.58
2019-01-03T14:37:49.812Z,103352.17
2019-01-03T14:40:19.733Z,103354.84
2019-01-03T14:42:49.723Z,103353.09
2019-01-03T14:45:19.569Z,103350.50
2019-01-03T14:47:49.436Z,103349.60
2019-01-03T14:50:19.386Z,103346.98
2019-01-03T14:52:49.309Z,103341.31
2019-01-03T14:55:20.661Z,103344.39
2019-01-03T14:57:50.605Z,103334.79
2019-01-03T15:00:20.478Z,103337.83
2019-01-03T15:02:50.394Z,103340.00
2019-01-03T15:05:20.244Z,103336.94
2019-01-03T15:07:50.104Z,103349.60
2019-01-03T15:10:19.954Z,103339.59
2019-01-03T15:12:49.742Z,103343.11
2019-01-03T15:15:20.362Z,103346.17
2019-01-03T15:17:50.523Z,103346.27
2019-01-03T15:20:20.452Z,103342.81
2019-01-03T15:22:50.228Z,103346.75
2019-01-03T15:25:20.008Z,103347.61
2019-01-03T15:27:49.896Z,103342.36
2019-01-03T15:30:20.140Z,103340.19
2019-01-03T15:32:49.995Z,103340.66
2019-01-03T15:35:20.134Z,103347.25
2019-01-03T15:37:50.382Z,103338.07
2019-01-03T15:40:20.598Z,103344.18
2019-01-03T15:42:50.420Z,103346.36
2019-01-03T15:45:20.382Z,103349.04
2019-01-03T15:47:50.307Z,103354.34
2019-01-03T15:50:21.240Z,103353.50
2019-01-03T15:52:51.087Z,103353.92
2019-01-03T15:55:21.514Z,103347.84
2019-01-03T15:57:51.368Z,103350.08
2019-01-03T16:00:22.258Z,103348.80
2019-01-03T16:02:54.935Z,103358.42
2019-01-03T16:05:24.354Z,103353.17
2019-01-03T16:07:54.150Z,103354.94
2019-01-03T16:10:24.299Z,103354.09
2019-01-03T16:12:54.514Z,103358.06
2019-01-03T16:15:24.819Z,103356.30
2019-01-03T16:17:54.739Z,103357.14
2019-01-03T16:20:24.672Z,103358.39
2019-01-03T16:22:54.659Z,103361.46
2019-01-03T16:25:24.510Z,103353.59
2019-01-03T16:27:55.015Z,103357.53
2019-01-03T16:30:24.847Z,103359.20
2019-01-03T16:32:54.725Z,103364.83
2019-01-03T16:35:24.650Z,103362.23
2019-01-03T16:37:54.499Z,103360.15
2019-01-03T16:40:24.756Z,103360.15
2019-01-03T16:42:54.687Z,103363.22
2019-01-03T16:45:24.969Z,103366.70
2019-01-03T16:47:54.943Z,103363.64
2019-01-03T16:50:24.856Z,103365.33
2019-01-03T16:52:54.783Z,103364.50
2019-01-03T16:55:24.618Z,103361.46
2019-01-03T16:57:54.397Z,103361.46
2019-01-03T17:00:24.311Z,103363.19
2019-01-03T17:02:54.308Z,103370.19
2019-01-03T17:05:24.239Z,103372.84
2019-01-03T17:07:54.110Z,103369.41
2019-01-03T17:10:23.959Z,103364.64
2019-01-03T17:12:53.903Z,103370.28
2019-01-03T17:15:24.114Z,103369.39
2019-01-03T17:17:54.059Z,103363.30
2019-01-03T17:20:23.895Z,103364.20
2019-01-03T17:22:54.162Z,103359.84
2019-01-03T17:25:24.426Z,103363.33
2019-01-03T17:27:54.345Z,103366.40
2019-01-03T17:30:24.187Z,103369.02
2019-01-03T17:32:53.973Z,103367.27
2019-01-03T17:35:23.829Z,103370.33
2019-01-03T17:37:53.936Z,103379.06
2019-01-03T17:40:23.790Z,103382.94
2019-01-03T17:42:53.737Z,103383.39
2019-01-03T17:45:23.930Z,103374.66
2019-01-03T17:47:54.067Z,103376.89
2019-01-03T17:50:24.017Z,103379.98
2019-01-03T17:52:53.957Z,103385.30
2019-01-03T17:55:24.214Z,103390.61
2019-01-03T17:57:54.163Z,103387.12
2019-01-03T18:00:24.099Z,103389.69
2019-01-03T18:02:54.044Z,103383.13
2019-01-03T18:05:23.977Z,103381.38
2019-01-03T18:07:53.811Z,103378.28
2019-01-03T18:10:24.004Z,103379.53
2019-01-03T18:12:53.864Z,103375.16
2019-01-03T18:15:24.434Z,103375.58
2019-01-03T18:17:54.536Z,103361.99
2019-01-03T18:20:24.478Z,103363.30
2019-01-03T18:22:55.014Z,103365.48
2019-01-03T18:25:25.915Z,103369.44
2019-01-03T18:27:55.786Z,103367.30
2019-01-03T18:30:25.555Z,103364.67
2019-01-03T18:32:55.546Z,103367.70
2019-01-03T18:35:25.404Z,103367.73
2019-01-03T18:37:55.246Z,103367.34
2019-01-03T18:40:25.104Z,103376.50
2019-01-03T18:42:55.242Z,103379.09
2019-01-03T18:45:26.916Z,103369.91
2019-01-03T18:47:57.073Z,103376.05
2019-01-03T18:50:30.889Z,103380.81
2019-01-03T18:53:01.031Z,103382.13
2019-01-03T18:55:31.370Z,103378.20
2019-01-03T18:58:01.293Z,103377.75
2019-01-03T19:00:31.229Z,103364.67
2019-01-03T19:03:01.348Z,103371.67
2019-01-03T19:05:31.277Z,103378.28
2019-01-03T19:08:01.528Z,103387.98
2019-01-03T19:10:32.870Z,103392.39
2019-01-03T19:13:08.239Z,103380.17
2019-01-03T19:15:38.742Z,103374.05
2019-01-03T19:18:09.018Z,103380.17
2019-01-03T19:20:38.868Z,103384.98
2019-01-03T19:23:10.104Z,103392.39
2019-01-03T19:25:40.774Z,103393.73
2019-01-03T19:28:11.177Z,103393.31
2019-01-03T19:30:41.213Z,103389.43
2019-01-03T19:33:12.072Z,103386.84
2019-01-03T19:35:42.351Z,103389.45
2019-01-03T19:38:12.562Z,103392.50
2019-01-03T19:40:43.135Z,103402.09
2019-01-03T19:43:13.606Z,103401.23
2019-01-03T19:45:43.890Z,103399.05
2019-01-03T19:48:14.079Z,103397.77
2019-01-03T19:50:44.282Z,103406.50
2019-01-03T19:53:14.209Z,103406.55
2019-01-03T19:55:44.835Z,103400.41
2019-01-03T19:58:14.652Z,103400.41
2019-01-03T20:00:44.594Z,103412.19
2019-01-03T20:03:14.509Z,103413.02
2019-01-03T20:05:44.374Z,103415.22
2019-01-03T20:08:14.245Z,103408.25
2019-01-03T20:10:44.438Z,103406.50
2019-01-03T20:13:14.221Z,103414.78
2019-01-03T20:15:44.135Z,103410.88
2019-01-03T20:18:14.164Z,103410.90
2019-01-03T20:20:44.086Z,103408.25
2019-01-03T20:23:14.041Z,103406.99
2019-01-03T20:25:43.993Z,103409.17
2019-01-03T20:28:13.936Z,103413.52
2019-01-03T20:30:44.260Z,103405.66
2019-01-03T20:33:14.446Z,103405.66
2019-01-03T20:35:44.389Z,103411.31
2019-01-03T20:38:16.496Z,103405.19
2019-01-03T20:40:46.604Z,103402.09
2019-01-03T20:43:16.721Z,103404.69
2019-01-03T20:45:46.657Z,103404.69
2019-01-03T20:48:17.506Z,103405.13
2019-01-03T20:50:47.494Z,103401.64
2019-01-03T20:53:17.749Z,103399.47
2019-01-03T20:55:48.117Z,103396.84
2019-01-03T20:58:18.332Z,103395.54
2019-01-03T21:00:48.564Z,103384.61
2019-01-03T21:03:18.849Z,103382.43
2019-01-03T21:05:48.670Z,103384.21
2019-01-03T21:08:18.742Z,103379.89
2019-01-03T21:10:48.679Z,103380.00
2019-01-03T21:13:18.565Z,103387.91
2019-01-03T21:15:49.038Z,103389.28
2019-01-03T21:18:19.195Z,103389.74
2019-01-03T21:20:49.152Z,103386.75
2019-01-03T21:23:19.234Z,103390.77
2019-01-03T21:25:49.430Z,103396.45
2019-01-03T21:28:19.443Z,103385.58
2019-01-03T21:30:49.846Z,103392.13
2019-01-03T21:33:20.177Z,103399.52
2019-01-03T21:35:50.246Z,103396.37
2019-01-03T21:38:21.254Z,103402.84
2019-01-03T21:40:51.167Z,103402.80
2019-01-03T21:43:21.722Z,103403.61
2019-01-03T21:45:52.118Z,103401.39
2019-01-03T21:48:21.962Z,103400.97
2019-01-03T21:50:52.067Z,103405.31
2019-01-03T21:53:22.008Z,103404.01
2019-01-03T21:55:52.153Z,103404.92
2019-01-03T21:58:25.622Z,103407.98
2019-01-03T22:00:55.705Z,103404.95
2019-01-03T22:03:25.654Z,103414.07
2019-01-03T22:05:55.841Z,103416.16
2019-01-03T22:08:25.621Z,103414.36
2019-01-03T22:10:55.787Z,103413.89
2019-01-03T22:13:25.740Z,103409.09
2019-01-03T22:15:56.233Z,103410.01
2019-01-03T22:18:26.163Z,103412.20
2019-01-03T22:20:56.117Z,103416.56
2019-01-03T22:23:26.336Z,103409.11
2019-01-03T22:25:56.269Z,103406.91
2019-01-03T22:28:26.130Z,103409.56
2019-01-03T22:30:56.060Z,103398.69
2019-01-03T22:33:25.924Z,103406.20
2019-01-03T22:35:55.876Z,103404.95
2019-01-03T22:38:25.734Z,103405.42
2019-01-03T22:40:55.701Z,103405.00
2019-01-03T22:43:25.532Z,103413.28
2019-01-03T22:45:55.462Z,103410.23
2019-01-03T22:48:25.726Z,103415.48
2019-01-03T22:50:55.651Z,103411.12
2019-01-03T22:53:25.919Z,103411.97
2019-01-03T22:55:55.770Z,103411.95
2019-01-03T22:58:26.026Z,103414.55
2019-01-03T23:00:58.679Z,103408.44
2019-01-03T23:03:28.689Z,103404.06
2019-01-03T23:05:58.536Z,103407.98
2019-01-03T23:08:28.442Z,103409.72
2019-01-03T23:10:58.287Z,103404.50
2019-01-03T23:13:28.229Z,103414.55
2019-01-03T23:15:58.083Z,103427.63
2019-01-03T23:18:31.563Z,103421.06
2019-01-03T23:20:59.871Z,103425.42
2019-01-03T23:23:29.827Z,103422.74
2019-01-03T23:26:01.834Z,103418.81
2019-01-03T23:28:31.945Z,103418.76
2019-01-03T23:31:01.803Z,103406.50
2019-01-03T23:33:31.740Z,103402.12
2019-01-03T23:36:01.592Z,103406.02
2019-01-03T23:38:32.111Z,103396.84
2019-01-03T23:41:02.036Z,103389.88
2019-01-03T23:43:32.124Z,103391.19
2019-01-03T23:46:02.071Z,103397.73
2019-01-03T23:48:33.528Z,103397.73
2019-01-03T23:51:03.731Z,103404.73
2019-01-03T23:53:33.666Z,103399.94
2019-01-03T23:56:03.521Z,103401.25
2019-01-03T23:58:33.795Z,103402.98
